sensor_id;sensor_type;location;lat;lon;timestamp;pressure;altitude;pressure_sealevel;temperature;humidity
63090;BME280;49174;43.198;27.824;2023-02-15T00:00:16;102860.50;;;4.65;68.21
63090;BME280;49174;43.198;27.824;2023-02-15T00:02:42;102861.69;;;4.61;68.46
63090;BME280;49174;43.198;27.824;2023-02-15T00:05:08;102867.06;;;4.61;69.03
63090;BME280;49174;43.198;27.824;2023-02-15T00:07:34;102859.78;;;4.63;69.01
63090;BME280;49174;43.198;27.824;2023-02-15T00:10:00;102868.03;;;4.60;68.85
63090;BME280;49174;43.198;27.824;2023-02-15T00:12:25;102870.56;;;4.61;69.38
63090;BME280;49174;43.198;27.824;2023-02-15T00:14:51;102867.13;;;4.59;69.47
63090;BME280;49174;43.198;27.824;2023-02-15T00:17:16;102870.69;;;4.60;68.81
63090;BME280;49174;43.198;27.824;2023-02-15T00:19:42;102864.78;;;4.67;68.86
63090;BME280;49174;43.198;27.824;2023-02-15T00:22:08;102860.41;;;4.66;68.97
63090;BME280;49174;43.198;27.824;2023-02-15T00:24:33;102862.03;;;4.69;68.96
63090;BME280;49174;43.198;27.824;2023-02-15T00:26:59;102860.13;;;4.71;69.61
63090;BME280;49174;43.198;27.824;2023-02-15T00:29:25;102861.28;;;4.67;69.16
63090;BME280;49174;43.198;27.824;2023-02-15T00:31:50;102855.72;;;4.70;68.87
63090;BME280;49174;43.198;27.824;2023-02-15T00:34:25;102854.09;;;4.67;68.37
63090;BME280;49174;43.198;27.824;2023-02-15T00:36:51;102858.19;;;4.60;69.32
63090;BME280;49174;43.198;27.824;2023-02-15T00:39:18;102866.41;;;4.57;69.46
63090;BME280;49174;43.198;27.824;2023-02-15T00:41:44;102856.13;;;4.51;69.88
63090;BME280;49174;43.198;27.824;2023-02-15T00:44:10;102861.38;;;4.53;69.91
63090;BME280;49174;43.198;27.824;2023-02-15T00:46:36;102857.09;;;4.50;69.33
63090;BME280;49174;43.198;27.824;2023-02-15T00:49:02;102856.53;;;4.45;69.76
63090;BME280;49174;43.198;27.824;2023-02-15T00:51:28;102842.75;;;4.38;69.22
63090;BME280;49174;43.198;27.824;2023-02-15T00:53:54;102852.25;;;4.30;70.81
63090;BME280;49174;43.198;27.824;2023-02-15T00:56:20;102854.47;;;4.23;70.05
63090;BME280;49174;43.198;27.824;2023-02-15T00:58:45;102857.97;;;4.11;71.07
63090;BME280;49174;43.198;27.824;2023-02-15T01:01:14;102853.78;;;4.07;71.39
63090;BME280;49174;43.198;27.824;2023-02-15T01:03:39;102847.38;;;3.96;71.32
63090;BME280;49174;43.198;27.824;2023-02-15T01:06:07;102840.81;;;3.88;71.21
63090;BME280;49174;43.198;27.824;2023-02-15T01:08:33;102843.59;;;3.86;72.14
63090;BME280;49174;43.198;27.824;2023-02-15T01:11:04;102846.75;;;3.78;71.97
63090;BME280;49174;43.198;27.824;2023-02-15T01:13:30;102847.38;;;3.69;72.24
63090;BME280;49174;43.198;27.824;2023-02-15T01:15:56;102859.78;;;3.56;73.04
63090;BME280;49174;43.198;27.824;2023-02-15T01:18:22;102860.19;;;3.50;73.60
63090;BME280;49174;43.198;27.824;2023-02-15T01:20:47;102859.22;;;3.51;73.59
63090;BME280;49174;43.198;27.824;2023-02-15T01:23:13;102847.94;;;3.33;73.95
63090;BME280;49174;43.198;27.824;2023-02-15T01:25:39;102852.69;;;3.28;74.82
63090;BME280;49174;43.198;27.824;2023-02-15T01:28:05;102847.94;;;3.33;75.25
63090;BME280;49174;43.198;27.824;2023-02-15T01:30:30;102856.97;;;3.30;74.23
63090;BME280;49174;43.198;27.824;2023-02-15T01:32:56;102867.09;;;3.25;74.44
63090;BME280;49174;43.198;27.824;2023-02-15T01:35:22;102859.47;;;3.19;74.07
63090;BME280;49174;43.198;27.824;2023-02-15T01:37:48;102869.09;;;3.07;75.33
63090;BME280;49174;43.198;27.824;2023-02-15T01:40:15;102858.91;;;3.14;75.49
63090;BME280;49174;43.198;27.824;2023-02-15T01:42:41;102854.81;;;3.08;75.05
63090;BME280;49174;43.198;27.824;2023-02-15T01:45:24;102848.72;;;2.92;74.84
63090;BME280;49174;43.198;27.824;2023-02-15T01:48:03;102844.72;;;2.71;75.42
63090;BME280;49174;43.198;27.824;2023-02-15T01:50:41;102840.72;;;2.63;76.72
63090;BME280;49174;43.198;27.824;2023-02-15T01:53:28;102839.00;;;2.62;76.31
63090;BME280;49174;43.198;27.824;2023-02-15T01:56:03;102843.50;;;2.62;76.57
63090;BME280;49174;43.198;27.824;2023-02-15T01:58:32;102857.72;;;2.46;76.49
63090;BME280;49174;43.198;27.824;2023-02-15T02:01:00;102855.03;;;2.32;78.12
63090;BME280;49174;43.198;27.824;2023-02-15T02:06:16;102863.47;;;2.24;78.77
63090;BME280;49174;43.198;27.824;2023-02-15T02:08:42;102868.03;;;2.22;79.70
63090;BME280;49174;43.198;27.824;2023-02-15T02:11:12;102866.91;;;2.27;79.43
63090;BME280;49174;43.198;27.824;2023-02-15T02:13:39;102856.25;;;2.27;79.05
63090;BME280;49174;43.198;27.824;2023-02-15T02:19:00;102862.81;;;2.21;79.50
63090;BME280;49174;43.198;27.824;2023-02-15T02:27:29;102871.56;;;2.23;80.10
63090;BME280;49174;43.198;27.824;2023-02-15T02:35:47;102876.59;;;1.97;79.91
63090;BME280;49174;43.198;27.824;2023-02-15T02:41:42;102879.09;;;1.85;80.88
63090;BME280;49174;43.198;27.824;2023-02-15T02:44:29;102879.19;;;1.83;81.63
63090;BME280;49174;43.198;27.824;2023-02-15T02:47:09;102881.34;;;1.92;82.00
63090;BME280;49174;43.198;27.824;2023-02-15T02:49:38;102893.34;;;1.99;81.66
63090;BME280;49174;43.198;27.824;2023-02-15T02:52:07;102883.53;;;2.00;81.40
63090;BME280;49174;43.198;27.824;2023-02-15T02:54:34;102887.09;;;1.85;81.54
63090;BME280;49174;43.198;27.824;2023-02-15T02:57:04;102893.53;;;1.81;82.66
63090;BME280;49174;43.198;27.824;2023-02-15T02:59:34;102890.34;;;1.90;82.54
63090;BME280;49174;43.198;27.824;2023-02-15T03:02:24;102886.91;;;1.88;82.15
63090;BME280;49174;43.198;27.824;2023-02-15T03:04:55;102883.47;;;1.86;82.38
63090;BME280;49174;43.198;27.824;2023-02-15T03:07:24;102884.16;;;1.89;82.39
63090;BME280;49174;43.198;27.824;2023-02-15T03:09:56;102893.59;;;1.95;82.72
63090;BME280;49174;43.198;27.824;2023-02-15T03:12:34;102899.28;;;1.89;82.94
63090;BME280;49174;43.198;27.824;2023-02-15T03:15:08;102900.72;;;1.94;81.96
63090;BME280;49174;43.198;27.824;2023-02-15T03:17:39;102893.63;;;1.79;81.17
63090;BME280;49174;43.198;27.824;2023-02-15T03:20:14;102901.06;;;1.72;81.20
63090;BME280;49174;43.198;27.824;2023-02-15T03:22:56;102899.91;;;1.62;82.11
63090;BME280;49174;43.198;27.824;2023-02-15T03:25:32;102905.13;;;1.64;83.10
63090;BME280;49174;43.198;27.824;2023-02-15T03:28:03;102905.22;;;1.62;83.81
63090;BME280;49174;43.198;27.824;2023-02-15T03:30:32;102906.69;;;1.68;83.39
63090;BME280;49174;43.198;27.824;2023-02-15T03:33:00;102905.22;;;1.62;83.11
63090;BME280;49174;43.198;27.824;2023-02-15T03:35:33;102903.56;;;1.75;83.57
63090;BME280;49174;43.198;27.824;2023-02-15T03:38:06;102913.19;;;1.78;83.76
63090;BME280;49174;43.198;27.824;2023-02-15T03:40:37;102898.06;;;1.94;84.57
63090;BME280;49174;43.198;27.824;2023-02-15T03:46:21;102897.69;;;2.16;83.25
63090;BME280;49174;43.198;27.824;2023-02-15T03:48:57;102912.38;;;2.23;82.94
63090;BME280;49174;43.198;27.824;2023-02-15T03:51:28;102913.03;;;2.27;82.73
63090;BME280;49174;43.198;27.824;2023-02-15T03:54:24;102930.56;;;2.31;82.56
63090;BME280;49174;43.198;27.824;2023-02-15T03:57:10;102914.69;;;2.30;82.85
63090;BME280;49174;43.198;27.824;2023-02-15T03:59:54;102919.81;;;2.33;82.44
63090;BME280;49174;43.198;27.824;2023-02-15T04:03:38;102918.19;;;2.30;82.36
63090;BME280;49174;43.198;27.824;2023-02-15T04:05:44;102922.56;;;2.31;82.05
63090;BME280;49174;43.198;27.824;2023-02-15T04:08:10;102922.56;;;2.31;82.33
63090;BME280;49174;43.198;27.824;2023-02-15T04:10:36;102927.84;;;2.47;82.43
63090;BME280;49174;43.198;27.824;2023-02-15T04:13:18;102920.28;;;2.55;81.26
63090;BME280;49174;43.198;27.824;2023-02-15T04:15:45;102928.38;;;2.54;81.50
63090;BME280;49174;43.198;27.824;2023-02-15T04:21:18;102923.25;;;2.35;80.91
63090;BME280;49174;43.198;27.824;2023-02-15T04:24:02;102925.41;;;2.28;81.09
63090;BME280;49174;43.198;27.824;2023-02-15T04:26:46;102932.69;;;2.40;82.28
63090;BME280;49174;43.198;27.824;2023-02-15T04:29:14;102928.41;;;2.38;81.51
63090;BME280;49174;43.198;27.824;2023-02-15T04:31:40;102940.59;;;2.42;81.50
63090;BME280;49174;43.198;27.824;2023-02-15T04:34:05;102937.84;;;2.43;81.76
63090;BME280;49174;43.198;27.824;2023-02-15T04:36:31;102944.38;;;2.38;81.33
63090;BME280;49174;43.198;27.824;2023-02-15T04:38:56;102952.56;;;2.35;81.09
63090;BME280;49174;43.198;27.824;2023-02-15T04:41:22;102950.41;;;2.26;81.10
63090;BME280;49174;43.198;27.824;2023-02-15T04:43:47;102950.69;;;2.21;81.73
63090;BME280;49174;43.198;27.824;2023-02-15T04:46:12;102957.31;;;2.14;81.09
63090;BME280;49174;43.198;27.824;2023-02-15T04:48:38;102950.78;;;2.19;nan
63090;BME280;49174;43.198;27.824;2023-02-15T04:51:07;102958.00;;;2.17;81.08
63090;BME280;49174;43.198;27.824;2023-02-15T04:53:33;102960.31;;;2.08;81.53
63090;BME280;49174;43.198;27.824;2023-02-15T04:55:59;102959.03;;;1.99;81.54
63090;BME280;49174;43.198;27.824;2023-02-15T04:58:25;102957.16;;;2.01;82.62
63090;BME280;49174;43.198;27.824;2023-02-15T05:00:50;102961.78;;;2.13;81.98
63090;BME280;49174;43.198;27.824;2023-02-15T05:03:16;102976.81;;;2.14;82.56
63090;BME280;49174;43.198;27.824;2023-02-15T05:05:42;102973.81;;;2.20;81.16
63090;BME280;49174;43.198;27.824;2023-02-15T05:08:26;102981.03;;;2.18;81.42
63090;BME280;49174;43.198;27.824;2023-02-15T05:10:55;102985.16;;;2.08;80.86
63090;BME280;49174;43.198;27.824;2023-02-15T05:13:28;102981.03;;;2.03;81.45
63090;BME280;49174;43.198;27.824;2023-02-15T05:16:17;102983.88;;;1.99;81.91
63090;BME280;49174;43.198;27.824;2023-02-15T05:18:46;102988.34;;;1.99;82.39
63090;BME280;49174;43.198;27.824;2023-02-15T05:21:12;102994.63;;;1.98;81.70
63090;BME280;49174;43.198;27.824;2023-02-15T05:23:41;102995.19;;;2.03;82.06
63090;BME280;49174;43.198;27.824;2023-02-15T05:26:11;102995.97;;;2.05;82.08
63090;BME280;49174;43.198;27.824;2023-02-15T05:28:55;103004.91;;;2.04;82.54
63090;BME280;49174;43.198;27.824;2023-02-15T05:31:27;103006.44;;;2.08;82.35
63090;BME280;49174;43.198;27.824;2023-02-15T05:33:55;103009.38;;;2.19;82.35
63090;BME280;49174;43.198;27.824;2023-02-15T05:36:28;103010.06;;;2.23;82.13
63090;BME280;49174;43.198;27.824;2023-02-15T05:38:55;103027.84;;;2.22;82.16
63090;BME280;49174;43.198;27.824;2023-02-15T05:41:25;103025.88;;;2.26;82.51
63090;BME280;49174;43.198;27.824;2023-02-15T05:43:55;103027.94;;;2.37;82.65
63090;BME280;49174;43.198;27.824;2023-02-15T05:46:22;103023.97;;;2.44;82.66
63090;BME280;49174;43.198;27.824;2023-02-15T05:48:47;103029.09;;;2.47;82.86
63090;BME280;49174;43.198;27.824;2023-02-15T05:51:13;103035.81;;;2.54;82.44
63090;BME280;49174;43.198;27.824;2023-02-15T05:53:40;103045.28;;;2.60;82.51
63090;BME280;49174;43.198;27.824;2023-02-15T05:56:07;103044.06;;;2.65;81.81
63090;BME280;49174;43.198;27.824;2023-02-15T05:58:35;103045.91;;;2.79;82.98
63090;BME280;49174;43.198;27.824;2023-02-15T06:03:37;103048.72;;;2.92;82.39
63090;BME280;49174;43.198;27.824;2023-02-15T06:06:03;103053.69;;;2.98;81.78
63090;BME280;49174;43.198;27.824;2023-02-15T06:08:30;103057.22;;;2.99;81.60
63090;BME280;49174;43.198;27.824;2023-02-15T06:10:56;103057.53;;;3.08;81.06
63090;BME280;49174;43.198;27.824;2023-02-15T06:13:22;103064.69;;;3.22;80.36
63090;BME280;49174;43.198;27.824;2023-02-15T06:15:48;103055.97;;;3.34;79.72
63090;BME280;49174;43.198;27.824;2023-02-15T06:18:13;103054.25;;;3.33;79.17
63090;BME280;49174;43.198;27.824;2023-02-15T06:20:38;103057.50;;;3.39;78.75
63090;BME280;49174;43.198;27.824;2023-02-15T06:23:04;103068.19;;;3.53;78.34
63090;BME280;49174;43.198;27.824;2023-02-15T06:25:30;103066.38;;;3.53;77.95
63090;BME280;49174;43.198;27.824;2023-02-15T06:27:55;103072.28;;;3.58;78.19
63090;BME280;49174;43.198;27.824;2023-02-15T06:30:21;103069.53;;;3.60;77.83
63090;BME280;49174;43.198;27.824;2023-02-15T06:32:46;103076.19;;;3.67;77.91
63090;BME280;49174;43.198;27.824;2023-02-15T06:35:12;103069.63;;;3.73;77.33
63090;BME280;49174;43.198;27.824;2023-02-15T06:37:38;103072.28;;;3.87;77.01
63090;BME280;49174;43.198;27.824;2023-02-15T06:40:04;103061.25;;;3.79;76.97
63090;BME280;49174;43.198;27.824;2023-02-15T06:42:29;103069.53;;;3.89;77.04
63090;BME280;49174;43.198;27.824;2023-02-15T06:44:55;103063.81;;;3.95;76.99
63090;BME280;49174;43.198;27.824;2023-02-15T06:47:20;103061.41;;;4.05;76.25
63090;BME280;49174;43.198;27.824;2023-02-15T06:49:46;103076.81;;;4.28;76.25
63090;BME280;49174;43.198;27.824;2023-02-15T06:52:11;103065.66;;;4.36;75.14
63090;BME280;49174;43.198;27.824;2023-02-15T06:54:37;103065.38;;;4.40;75.44
63090;BME280;49174;43.198;27.824;2023-02-15T06:57:02;103062.84;;;4.52;74.67
63090;BME280;49174;43.198;27.824;2023-02-15T06:59:28;103061.31;;;4.47;73.74
63090;BME280;49174;43.198;27.824;2023-02-15T07:01:54;103070.66;;;4.55;74.02
63090;BME280;49174;43.198;27.824;2023-02-15T07:04:19;103068.00;;;4.55;73.63
63090;BME280;49174;43.198;27.824;2023-02-15T07:06:44;103073.34;;;4.55;72.91
63090;BME280;49174;43.198;27.824;2023-02-15T07:09:11;103070.75;;;4.53;72.81
63090;BME280;49174;43.198;27.824;2023-02-15T07:11:38;103074.88;;;4.44;73.83
63090;BME280;49174;43.198;27.824;2023-02-15T07:14:22;103076.22;;;4.52;73.25
63090;BME280;49174;43.198;27.824;2023-02-15T07:16:47;103087.06;;;4.63;72.96
63090;BME280;49174;43.198;27.824;2023-02-15T07:19:13;103089.91;;;4.74;72.40
63090;BME280;49174;43.198;27.824;2023-02-15T07:21:39;103091.53;;;4.89;72.31
63090;BME280;49174;43.198;27.824;2023-02-15T07:24:04;103092.09;;;4.95;71.78
63090;BME280;49174;43.198;27.824;2023-02-15T07:26:33;103095.19;;;5.01;71.00
63090;BME280;49174;43.198;27.824;2023-02-15T07:28:59;103093.75;;;5.10;70.35
63090;BME280;49174;43.198;27.824;2023-02-15T07:31:24;103091.16;;;5.08;70.08
63090;BME280;49174;43.198;27.824;2023-02-15T07:33:50;103086.03;;;5.18;70.44
63090;BME280;49174;43.198;27.824;2023-02-15T07:36:16;103082.53;;;5.30;70.99
63090;BME280;49174;43.198;27.824;2023-02-15T07:38:41;103089.50;;;5.46;69.17
63090;BME280;49174;43.198;27.824;2023-02-15T07:55:41;103081.41;;;5.60;66.92
63090;BME280;49174;43.198;27.824;2023-02-15T07:58:07;103090.50;;;5.57;67.02
63090;BME280;49174;43.198;27.824;2023-02-15T08:00:32;103075.06;;;5.61;67.06
63090;BME280;49174;43.198;27.824;2023-02-15T08:03:18;103078.91;;;5.57;66.52
63090;BME280;49174;43.198;27.824;2023-02-15T08:17:17;103087.38;;;5.76;66.09
63090;BME280;49174;43.198;27.824;2023-02-15T08:19:43;103087.38;;;5.89;63.49
63090;BME280;49174;43.198;27.824;2023-02-15T08:32:57;103087.34;;;6.15;63.28
63090;BME280;49174;43.198;27.824;2023-02-15T08:35:24;103088.66;;;6.22;63.48
63090;BME280;49174;43.198;27.824;2023-02-15T08:40:31;103090.25;;;6.24;62.57
63090;BME280;49174;43.198;27.824;2023-02-15T08:42:56;103092.16;;;6.35;63.32
63090;BME280;49174;43.198;27.824;2023-02-15T08:53:33;103091.88;;;6.51;60.79
63090;BME280;49174;43.198;27.824;2023-02-15T08:58:55;103094.44;;;6.53;60.16
63090;BME280;49174;43.198;27.824;2023-02-15T09:06:59;103093.88;;;6.84;60.16
63090;BME280;49174;43.198;27.824;2023-02-15T09:15:19;103080.44;;;7.08;58.56
63090;BME280;49174;43.198;27.824;2023-02-15T09:17:45;103082.16;;;7.09;57.73
63090;BME280;49174;43.198;27.824;2023-02-15T09:20:10;103081.00;;;7.25;57.32
63090;BME280;49174;43.198;27.824;2023-02-15T09:22:36;103083.31;;;7.29;57.03
63090;BME280;49174;43.198;27.824;2023-02-15T09:25:01;103079.56;;;7.43;56.79
63090;BME280;49174;43.198;27.824;2023-02-15T09:37:55;103079.06;;;7.49;55.50
63090;BME280;49174;43.198;27.824;2023-02-15T09:40:23;103084.69;;;7.46;55.85
63090;BME280;49174;43.198;27.824;2023-02-15T10:13:29;103052.25;;;7.72;52.75
63090;BME280;49174;43.198;27.824;2023-02-15T10:16:24;103052.59;;;7.78;52.98
63090;BME280;49174;43.198;27.824;2023-02-15T10:19:03;103042.81;;;7.55;54.08
63090;BME280;49174;43.198;27.824;2023-02-15T10:27:31;103038.31;;;7.89;53.31
63090;BME280;49174;43.198;27.824;2023-02-15T10:29:57;103034.41;;;7.82;52.52
63090;BME280;49174;43.198;27.824;2023-02-15T10:32:26;103042.09;;;7.75;52.98
63090;BME280;49174;43.198;27.824;2023-02-15T10:35:10;103041.50;;;7.83;53.08
63090;BME280;49174;43.198;27.824;2023-02-15T10:43:29;103039.66;;;7.83;53.76
63090;BME280;49174;43.198;27.824;2023-02-15T10:51:02;103016.22;;;8.84;51.44
63090;BME280;49174;43.198;27.824;2023-02-15T11:07:22;103012.56;;;8.53;50.60
63090;BME280;49174;43.198;27.824;2023-02-15T11:09:54;103014.00;;;8.57;51.60
63090;BME280;49174;43.198;27.824;2023-02-15T11:12:24;103004.13;;;8.99;51.10
63090;BME280;49174;43.198;27.824;2023-02-15T11:17:48;103015.84;;;8.77;50.38
63090;BME280;49174;43.198;27.824;2023-02-15T11:22:49;103013.34;;;8.21;51.86
63090;BME280;49174;43.198;27.824;2023-02-15T11:25:28;103016.25;;;8.29;51.42
63090;BME280;49174;43.198;27.824;2023-02-15T11:27:55;103018.69;;;8.32;50.89
63090;BME280;49174;43.198;27.824;2023-02-15T11:30:27;103010.31;;;8.58;50.57
63090;BME280;49174;43.198;27.824;2023-02-15T11:32:58;103007.81;;;8.98;48.47
63090;BME280;49174;43.198;27.824;2023-02-15T11:38:16;103001.97;;;8.93;48.49
63090;BME280;49174;43.198;27.824;2023-02-15T11:40:53;103004.25;;;8.77;49.10
63090;BME280;49174;43.198;27.824;2023-02-15T11:46:05;103003.28;;;8.45;50.21
63090;BME280;49174;43.198;27.824;2023-02-15T11:48:33;103005.00;;;8.24;50.99
63090;BME280;49174;43.198;27.824;2023-02-15T11:51:00;103009.16;;;8.39;51.28
63090;BME280;49174;43.198;27.824;2023-02-15T11:53:33;103007.56;;;8.48;49.87
63090;BME280;49174;43.198;27.824;2023-02-15T11:56:01;102990.47;;;8.70;48.83
63090;BME280;49174;43.198;27.824;2023-02-15T11:59:00;102991.94;;;8.63;47.82
63090;BME280;49174;43.198;27.824;2023-02-15T12:01:32;102990.34;;;8.39;48.72
63090;BME280;49174;43.198;27.824;2023-02-15T12:04:13;102986.03;;;8.48;48.21
63090;BME280;49174;43.198;27.824;2023-02-15T12:06:45;102980.75;;;8.46;49.07
63090;BME280;49174;43.198;27.824;2023-02-15T12:09:33;102982.44;;;8.80;47.87
63090;BME280;49174;43.198;27.824;2023-02-15T12:12:23;102977.75;;;8.72;47.53
63090;BME280;49174;43.198;27.824;2023-02-15T12:14:54;102976.16;;;8.90;47.65
63090;BME280;49174;43.198;27.824;2023-02-15T12:17:22;102964.31;;;9.24;48.22
63090;BME280;49174;43.198;27.824;2023-02-15T12:19:48;102974.19;;;8.92;47.65
63090;BME280;49174;43.198;27.824;2023-02-15T12:22:24;102975.16;;;8.70;47.24
63090;BME280;49174;43.198;27.824;2023-02-15T12:24:53;102975.28;;;8.69;48.28
63090;BME280;49174;43.198;27.824;2023-02-15T12:27:21;102977.31;;;8.77;47.87
63090;BME280;49174;43.198;27.824;2023-02-15T12:29:51;102971.44;;;9.04;47.09
63090;BME280;49174;43.198;27.824;2023-02-15T12:32:27;102958.34;;;9.20;47.84
63090;BME280;49174;43.198;27.824;2023-02-15T12:35:08;102964.00;;;9.48;46.81
63090;BME280;49174;43.198;27.824;2023-02-15T12:37:34;102957.25;;;9.63;46.82
63090;BME280;49174;43.198;27.824;2023-02-15T12:40:19;102957.91;;;9.46;46.15
63090;BME280;49174;43.198;27.824;2023-02-15T12:42:45;102951.28;;;9.59;47.50
63090;BME280;49174;43.198;27.824;2023-02-15T12:45:31;102949.31;;;9.71;46.99
63090;BME280;49174;43.198;27.824;2023-02-15T12:48:20;102958.88;;;9.85;46.55
63090;BME280;49174;43.198;27.824;2023-02-15T12:50:50;102952.44;;;9.67;46.06
63090;BME280;49174;43.198;27.824;2023-02-15T12:53:32;102945.75;;;9.61;47.22
63090;BME280;49174;43.198;27.824;2023-02-15T12:56:00;102947.66;;;9.39;46.92
63090;BME280;49174;43.198;27.824;2023-02-15T12:58:28;102950.34;;;9.39;46.91
63090;BME280;49174;43.198;27.824;2023-02-15T13:01:14;102952.00;;;9.61;47.09
63090;BME280;49174;43.198;27.824;2023-02-15T13:03:57;102946.63;;;9.71;45.95
63090;BME280;49174;43.198;27.824;2023-02-15T13:06:24;102957.41;;;9.71;45.66
63090;BME280;49174;43.198;27.824;2023-02-15T13:08:52;102945.78;;;9.71;45.91
63090;BME280;49174;43.198;27.824;2023-02-15T13:11:28;102951.50;;;9.47;47.07
63090;BME280;49174;43.198;27.824;2023-02-15T13:14:04;102948.63;;;9.38;47.37
63090;BME280;49174;43.198;27.824;2023-02-15T13:16:42;102953.69;;;9.62;46.97
63090;BME280;49174;43.198;27.824;2023-02-15T13:19:15;102947.63;;;9.70;46.22
63090;BME280;49174;43.198;27.824;2023-02-15T13:21:44;102947.03;;;9.67;46.23
63090;BME280;49174;43.198;27.824;2023-02-15T13:24:21;102954.63;;;9.42;46.28
63090;BME280;49174;43.198;27.824;2023-02-15T13:26:49;102949.44;;;9.29;47.01
63090;BME280;49174;43.198;27.824;2023-02-15T13:31:51;102944.63;;;9.33;47.56
63090;BME280;49174;43.198;27.824;2023-02-15T13:34:31;102952.22;;;9.18;47.77
63090;BME280;49174;43.198;27.824;2023-02-15T13:40:07;102947.25;;;8.71;49.54
63090;BME280;49174;43.198;27.824;2023-02-15T13:42:41;102944.28;;;8.75;49.41
63090;BME280;49174;43.198;27.824;2023-02-15T13:45:36;102941.94;;;8.60;49.38
63090;BME280;49174;43.198;27.824;2023-02-15T14:05:13;102943.84;;;8.37;49.04
63090;BME280;49174;43.198;27.824;2023-02-15T14:10:33;102942.25;;;8.35;49.38
63090;BME280;49174;43.198;27.824;2023-02-15T14:15:49;102938.97;;;8.42;49.78
63090;BME280;49174;43.198;27.824;2023-02-15T14:21:17;102939.81;;;8.43;49.84
63090;BME280;49174;43.198;27.824;2023-02-15T14:24:18;102934.69;;;8.40;49.98
63090;BME280;49174;43.198;27.824;2023-02-15T14:27:02;102935.44;;;8.31;49.29
63090;BME280;49174;43.198;27.824;2023-02-15T14:37:42;102938.91;;;8.10;47.75
63090;BME280;49174;43.198;27.824;2023-02-15T14:48:52;102951.19;;;8.03;47.09
63090;BME280;49174;43.198;27.824;2023-02-15T15:10:50;102934.00;;;7.83;46.96
63090;BME280;49174;43.198;27.824;2023-02-15T15:18:56;102944.78;;;7.72;47.18
63090;BME280;49174;43.198;27.824;2023-02-15T15:27:43;102945.25;;;7.43;47.90
63090;BME280;49174;43.198;27.824;2023-02-15T15:32:53;102949.03;;;7.29;48.23
63090;BME280;49174;43.198;27.824;2023-02-15T15:49:33;102964.94;;;6.75;48.64
63090;BME280;49174;43.198;27.824;2023-02-15T16:04:00;102975.84;;;6.12;51.23
63090;BME280;49174;43.198;27.824;2023-02-15T16:14:50;102974.56;;;5.68;51.83
63090;BME280;49174;43.198;27.824;2023-02-15T16:20:59;102977.63;;;5.38;53.62
63090;BME280;49174;43.198;27.824;2023-02-15T16:43:45;102993.22;;;4.53;58.30
63090;BME280;49174;43.198;27.824;2023-02-15T16:47:01;103006.16;;;4.46;57.94
63090;BME280;49174;43.198;27.824;2023-02-15T16:49:25;103018.81;;;4.30;57.82
63090;BME280;49174;43.198;27.824;2023-02-15T16:52:00;103023.44;;;3.99;58.14
63090;BME280;49174;43.198;27.824;2023-02-15T16:54:27;103016.72;;;3.79;58.61
63090;BME280;49174;43.198;27.824;2023-02-15T16:56:53;103015.66;;;3.82;60.15
63090;BME280;49174;43.198;27.824;2023-02-15T16:59:31;103025.84;;;3.75;59.65
63090;BME280;49174;43.198;27.824;2023-02-15T17:01:58;103026.81;;;3.60;59.07
63090;BME280;49174;43.198;27.824;2023-02-15T17:04:29;103027.09;;;3.41;59.58
63090;BME280;49174;43.198;27.824;2023-02-15T17:07:06;103026.97;;;3.28;59.69
63090;BME280;49174;43.198;27.824;2023-02-15T17:09:32;103030.66;;;3.11;60.15
63090;BME280;49174;43.198;27.824;2023-02-15T17:11:59;103037.59;;;3.00;60.85
63090;BME280;49174;43.198;27.824;2023-02-15T17:14:30;103038.63;;;2.97;65.78
63090;BME280;49174;43.198;27.824;2023-02-15T17:17:07;103043.59;;;3.03;66.89
63090;BME280;49174;43.198;27.824;2023-02-15T17:19:47;103034.66;;;3.04;67.47
63090;BME280;49174;43.198;27.824;2023-02-15T17:22:20;103039.41;;;2.99;67.49
63090;BME280;49174;43.198;27.824;2023-02-15T17:24:48;103042.16;;;2.98;67.67
63090;BME280;49174;43.198;27.824;2023-02-15T17:27:24;103034.84;;;3.01;69.25
63090;BME280;49174;43.198;27.824;2023-02-15T17:30:01;103042.09;;;3.13;68.32
63090;BME280;49174;43.198;27.824;2023-02-15T17:32:29;103033.69;;;3.05;68.38
63090;BME280;49174;43.198;27.824;2023-02-15T17:35:00;103047.78;;;2.93;67.88
63090;BME280;49174;43.198;27.824;2023-02-15T17:37:41;103046.53;;;2.68;67.56
63090;BME280;49174;43.198;27.824;2023-02-15T17:40:21;103043.47;;;2.44;68.86
63090;BME280;49174;43.198;27.824;2023-02-15T17:42:47;103047.16;;;2.42;68.86
63090;BME280;49174;43.198;27.824;2023-02-15T17:45:13;103043.13;;;2.19;68.08
63090;BME280;49174;43.198;27.824;2023-02-15T17:47:39;103045.28;;;2.12;71.03
63090;BME280;49174;43.198;27.824;2023-02-15T17:50:06;103043.31;;;2.16;68.04
63090;BME280;49174;43.198;27.824;2023-02-15T17:52:32;103043.41;;;1.98;68.31
63090;BME280;49174;43.198;27.824;2023-02-15T17:55:05;103061.41;;;1.93;70.90
63090;BME280;49174;43.198;27.824;2023-02-15T17:57:51;103058.06;;;1.90;73.26
63090;BME280;49174;43.198;27.824;2023-02-15T18:00:17;103059.00;;;1.89;74.22
63090;BME280;49174;43.198;27.824;2023-02-15T18:03:01;103059.53;;;1.95;76.89
63090;BME280;49174;43.198;27.824;2023-02-15T18:05:45;103061.59;;;2.06;76.28
63090;BME280;49174;43.198;27.824;2023-02-15T18:08:30;103060.50;;;2.10;75.59
63090;BME280;49174;43.198;27.824;2023-02-15T18:11:14;103061.19;;;1.98;74.85
63090;BME280;49174;43.198;27.824;2023-02-15T18:13:58;103062.47;;;2.07;73.91
63090;BME280;49174;43.198;27.824;2023-02-15T18:16:29;103069.56;;;1.90;71.54
63090;BME280;49174;43.198;27.824;2023-02-15T18:18:55;103068.75;;;1.72;71.69
63090;BME280;49174;43.198;27.824;2023-02-15T18:21:22;103066.81;;;1.59;72.44
63090;BME280;49174;43.198;27.824;2023-02-15T18:23:48;103081.47;;;1.50;73.36